Terminal Aerodrome Forecast
Issued by NWS Upton, NY

Home | Current Version | Previous Version | Text Only | Print | Product List | Glossary On
Versions: 1 2 3 4 5 6 7 8 9 10 11 12 13 14 15 16 17 18 19 20 21 22 23 24
510
FTUS41 KOKX 141735
TAFEWR
TAF
KEWR 141735Z 1418/1524 31009KT P6SM SKC
     FM142300 VRB05KT P6SM SCT250
     FM151400 09006KT 2SM -SN BKN012
     FM151900 09007KT 3/4SM -SN OVC008=

USA.gov is the U.S. government's official web portal to all federal, state and local government web resources and services.